createdAt,value
2022-11-04T00:01:16.572Z,1.20
2022-11-04T00:03:43.924Z,1.55
2022-11-04T00:06:11.278Z,1.00
2022-11-04T00:08:40.023Z,0.95
2022-11-04T00:11:25.057Z,1.10
2022-11-04T00:13:52.719Z,1.27
2022-11-04T00:16:37.430Z,1.00
2022-11-04T00:19:04.938Z,1.20
2022-11-04T00:21:49.850Z,1.00
2022-11-04T00:24:54.918Z,1.38
2022-11-04T00:27:40.079Z,1.33
2022-11-04T00:32:52.990Z,1.20
2022-11-04T00:35:20.833Z,1.40
2022-11-04T00:37:48.208Z,1.40
2022-11-04T00:40:17.210Z,1.20
2022-11-04T00:42:45.685Z,1.60
2022-11-04T00:45:13.039Z,1.40
2022-11-04T00:47:40.542Z,1.45
2022-11-04T00:50:08.375Z,1.45
2022-11-04T00:52:35.687Z,1.70
2022-11-04T00:55:03.095Z,1.70
2022-11-04T00:57:31.847Z,1.50
2022-11-04T00:59:59.188Z,1.60
2022-11-04T01:02:27.041Z,1.52
2022-11-04T01:04:55.420Z,1.52
2022-11-04T01:07:22.800Z,1.58
2022-11-04T01:09:50.180Z,1.40
2022-11-04T01:12:17.875Z,1.23
2022-11-04T01:14:49.693Z,1.25
2022-11-04T01:17:17.203Z,1.27
2022-11-04T01:19:44.766Z,1.40
2022-11-04T01:22:12.105Z,1.60
2022-11-04T01:24:39.423Z,1.60
2022-11-04T01:27:06.985Z,1.30
2022-11-04T01:29:34.327Z,1.33
2022-11-04T01:32:03.057Z,1.10
2022-11-04T01:34:30.400Z,1.27
2022-11-04T01:36:57.752Z,1.27
2022-11-04T01:39:25.144Z,1.40
2022-11-04T01:41:52.519Z,1.25
2022-11-04T01:44:38.772Z,1.02
2022-11-04T01:47:10.026Z,1.00
2022-11-04T01:49:43.270Z,1.30
2022-11-04T01:52:13.865Z,1.35
2022-11-04T01:54:42.131Z,1.40
2022-11-04T01:57:15.144Z,1.50
2022-11-04T01:59:42.869Z,1.05
2022-11-04T02:02:11.669Z,1.20
2022-11-04T02:04:40.049Z,1.35
2022-11-04T02:07:08.812Z,1.20
2022-11-04T02:09:37.040Z,1.67
2022-11-04T02:12:22.599Z,1.20
2022-11-04T02:14:50.832Z,0.90
2022-11-04T02:17:27.590Z,1.38
2022-11-04T02:20:10.299Z,1.27
2022-11-04T02:22:45.721Z,1.48
2022-11-04T02:25:25.791Z,1.42
2022-11-04T02:28:02.798Z,1.55
2022-11-04T02:30:32.972Z,1.25
2022-11-04T02:33:04.831Z,1.42
2022-11-04T02:35:40.539Z,1.30
2022-11-04T02:38:11.629Z,1.52
2022-11-04T02:40:42.186Z,1.20
2022-11-04T02:43:13.225Z,1.27
2022-11-04T02:45:43.625Z,0.98
2022-11-04T02:48:13.626Z,1.52
2022-11-04T02:50:43.945Z,1.73
2022-11-04T02:53:13.763Z,1.60
2022-11-04T02:55:44.055Z,1.13
2022-11-04T02:58:14.472Z,0.93
2022-11-04T03:00:44.277Z,1.50
2022-11-04T03:03:13.052Z,1.42
2022-11-04T03:05:41.430Z,1.17
2022-11-04T03:08:10.632Z,1.65
2022-11-04T03:10:41.422Z,1.20
2022-11-04T03:13:12.425Z,1.63
2022-11-04T03:15:40.943Z,1.45
2022-11-04T03:18:16.207Z,1.50
2022-11-04T03:20:44.044Z,1.42
2022-11-04T03:23:11.827Z,1.40
2022-11-04T03:25:41.499Z,1.10
2022-11-04T03:28:15.069Z,1.80
2022-11-04T03:30:44.209Z,1.65
2022-11-04T03:33:18.611Z,1.20
2022-11-04T03:35:45.938Z,1.27
2022-11-04T03:38:13.302Z,1.25
2022-11-04T03:40:40.722Z,1.60
2022-11-04T03:43:10.215Z,1.10
2022-11-04T03:45:38.128Z,2.13
2022-11-04T03:48:06.322Z,1.20
2022-11-04T03:50:40.437Z,1.35
2022-11-04T03:53:08.904Z,1.85
2022-11-04T03:55:41.103Z,1.15
2022-11-04T03:58:10.963Z,1.55
2022-11-04T04:00:42.653Z,2.00
2022-11-04T04:03:12.599Z,1.75
2022-11-04T04:05:45.195Z,1.85
2022-11-04T04:08:16.095Z,1.60
2022-11-04T04:10:46.882Z,1.30
2022-11-04T04:13:19.345Z,1.50
2022-11-04T04:15:50.422Z,1.75
2022-11-04T04:18:19.486Z,1.77
2022-11-04T04:20:48.679Z,2.00
2022-11-04T04:23:35.556Z,2.10
2022-11-04T04:26:22.349Z,1.70
2022-11-04T04:28:51.406Z,1.48
2022-11-04T04:31:39.596Z,1.58
2022-11-04T04:34:07.262Z,1.65
2022-11-04T04:36:41.099Z,1.90
2022-11-04T04:39:27.593Z,2.10
2022-11-04T04:42:13.227Z,2.05
2022-11-04T04:44:59.702Z,2.10
2022-11-04T04:47:27.984Z,1.65
2022-11-04T04:49:56.154Z,2.30
2022-11-04T04:52:26.570Z,1.60
2022-11-04T04:54:53.903Z,1.80
2022-11-04T04:57:21.246Z,1.85
2022-11-04T04:59:48.593Z,2.28
2022-11-04T05:02:16.027Z,2.25
2022-11-04T05:04:43.481Z,1.70
2022-11-04T05:07:10.840Z,1.45
2022-11-04T05:09:39.511Z,2.05
2022-11-04T05:12:07.317Z,1.95
2022-11-04T05:14:34.673Z,1.92
2022-11-04T05:17:02.016Z,1.55
2022-11-04T05:19:32.505Z,2.25
2022-11-04T05:21:59.980Z,2.25
2022-11-04T05:24:27.293Z,2.00
2022-11-04T05:26:55.963Z,1.80
2022-11-04T05:29:23.317Z,2.50
2022-11-04T05:31:50.689Z,2.72
2022-11-04T05:34:17.977Z,3.28
2022-11-04T05:36:45.314Z,2.42
2022-11-04T05:39:13.761Z,1.83
2022-11-04T05:41:41.138Z,1.63
2022-11-04T05:44:11.735Z,1.88
2022-11-04T05:46:39.075Z,2.20
2022-11-04T05:49:06.438Z,2.05
2022-11-04T05:51:34.041Z,1.40
2022-11-04T05:54:01.743Z,2.03
2022-11-04T05:56:29.124Z,2.20
2022-11-04T05:58:56.445Z,2.63
2022-11-04T06:01:26.741Z,2.95
2022-11-04T06:03:54.497Z,2.75
2022-11-04T06:06:22.417Z,2.53
2022-11-04T06:08:50.475Z,3.10
2022-11-04T06:11:18.148Z,2.97
2022-11-04T06:13:45.486Z,3.47
2022-11-04T06:16:12.872Z,3.92
2022-11-04T06:18:41.575Z,3.38
2022-11-04T06:21:21.158Z,3.42
2022-11-04T06:23:48.856Z,4.00
2022-11-04T06:26:18.203Z,4.40
2022-11-04T06:28:45.710Z,3.70
2022-11-04T06:31:13.672Z,4.95
2022-11-04T06:33:42.419Z,4.40
2022-11-04T06:36:11.591Z,4.25
2022-11-04T06:38:39.025Z,4.05
2022-11-04T06:41:06.845Z,4.15
2022-11-04T06:43:34.183Z,4.35
2022-11-04T06:46:02.205Z,3.88
2022-11-04T06:48:30.509Z,3.83
2022-11-04T06:50:59.525Z,3.88
2022-11-04T06:53:26.951Z,4.00
2022-11-04T06:55:54.888Z,4.28
2022-11-04T06:58:22.164Z,3.95
2022-11-04T07:00:53.643Z,5.32
2022-11-04T07:03:21.074Z,4.57
2022-11-04T07:05:48.467Z,4.30
2022-11-04T07:08:17.174Z,5.07
2022-11-04T07:10:44.507Z,5.22
2022-11-04T07:13:11.849Z,5.78
2022-11-04T07:15:39.392Z,4.82
2022-11-04T07:18:07.660Z,5.82
2022-11-04T07:20:35.495Z,4.97
2022-11-04T07:23:02.794Z,5.47
2022-11-04T07:25:31.495Z,5.32
2022-11-04T07:28:02.096Z,4.47
2022-11-04T07:30:29.948Z,4.72
2022-11-04T07:32:58.154Z,4.50
2022-11-04T07:35:25.553Z,4.68
2022-11-04T07:37:54.638Z,4.57
2022-11-04T07:40:22.103Z,4.38
2022-11-04T07:42:50.853Z,4.97
2022-11-04T07:45:18.315Z,4.65
2022-11-04T07:47:45.754Z,4.97
2022-11-04T07:50:13.456Z,5.32
2022-11-04T07:52:40.864Z,5.15
2022-11-04T07:55:09.180Z,4.85
2022-11-04T07:57:36.512Z,6.65
2022-11-04T08:00:07.017Z,4.85
2022-11-04T08:02:35.409Z,4.55
2022-11-04T08:05:02.952Z,5.10
2022-11-04T08:07:30.298Z,4.50
2022-11-04T08:09:57.601Z,4.63
2022-11-04T08:12:25.021Z,4.93
2022-11-04T08:14:52.371Z,4.60
2022-11-04T08:17:21.024Z,4.57
2022-11-04T08:19:48.407Z,4.25
2022-11-04T08:22:15.769Z,3.80
2022-11-04T08:24:43.093Z,4.90
2022-11-04T08:27:10.476Z,4.55
2022-11-04T08:29:37.784Z,5.65
2022-11-04T08:32:05.211Z,4.97
2022-11-04T08:34:33.960Z,5.35
2022-11-04T08:37:01.292Z,5.20
2022-11-04T08:39:28.903Z,5.03
2022-11-04T08:41:57.286Z,5.45
2022-11-04T08:44:25.433Z,6.05
2022-11-04T08:46:53.025Z,5.03
2022-11-04T08:49:21.554Z,5.25
2022-11-04T08:51:56.462Z,5.90
2022-11-04T08:54:24.318Z,5.68
2022-11-04T08:56:51.777Z,4.88
2022-11-04T08:59:19.271Z,5.45
2022-11-04T09:01:46.919Z,4.80
2022-11-04T09:04:14.416Z,5.05
2022-11-04T09:06:44.781Z,5.20
2022-11-04T09:09:14.752Z,5.95
2022-11-04T09:11:42.716Z,5.85
2022-11-04T09:14:10.629Z,5.80
2022-11-04T09:16:38.163Z,6.10
2022-11-04T09:19:06.064Z,5.40
2022-11-04T09:21:33.427Z,5.32
2022-11-04T09:24:00.773Z,5.70
2022-11-04T09:26:29.466Z,4.90
2022-11-04T09:28:57.634Z,4.80
2022-11-04T09:31:25.721Z,5.38
2022-11-04T09:33:54.500Z,5.00
2022-11-04T09:36:21.833Z,5.18
2022-11-04T09:38:49.643Z,7.57
2022-11-04T09:41:35.129Z,3.70
2022-11-04T09:44:05.043Z,19.67
2022-11-04T09:46:33.920Z,4.65
2022-11-04T09:49:02.644Z,3.55
2022-11-04T09:51:53.238Z,4.72
2022-11-04T09:54:21.090Z,3.70
2022-11-04T09:56:51.626Z,4.05
2022-11-04T09:59:22.222Z,4.28
2022-11-04T10:01:54.076Z,4.32
2022-11-04T10:04:25.818Z,3.72
2022-11-04T10:07:01.664Z,4.15
2022-11-04T10:09:38.152Z,4.43
2022-11-04T10:12:13.702Z,4.22
2022-11-04T10:14:47.244Z,4.25
2022-11-04T10:17:24.308Z,3.78
2022-11-04T10:19:57.563Z,3.97
2022-11-04T10:22:29.511Z,2.92
2022-11-04T10:25:01.497Z,3.53
2022-11-04T10:27:32.751Z,3.63
2022-11-04T10:30:01.684Z,3.10
2022-11-04T10:32:31.085Z,3.63
2022-11-04T10:34:59.444Z,3.85
2022-11-04T10:37:27.388Z,4.22
2022-11-04T10:39:59.874Z,4.32
2022-11-04T10:42:27.199Z,4.20
2022-11-04T10:44:55.916Z,3.75
2022-11-04T10:47:29.385Z,4.10
2022-11-04T10:50:28.787Z,4.75
2022-11-04T10:53:12.784Z,4.82
2022-11-04T10:55:43.767Z,3.60
2022-11-04T10:58:15.928Z,3.38
2022-11-04T11:00:44.711Z,3.33
2022-11-04T11:03:29.085Z,3.45
2022-11-04T11:06:11.267Z,3.20
2022-11-04T11:08:38.958Z,3.40
2022-11-04T11:11:06.602Z,3.38
2022-11-04T11:13:36.154Z,3.13
2022-11-04T11:16:09.122Z,2.63
2022-11-04T11:18:38.276Z,2.85
2022-11-04T11:21:07.665Z,2.42
2022-11-04T11:23:37.756Z,1.83
2022-11-04T11:26:07.100Z,1.50
2022-11-04T11:28:38.206Z,1.42
2022-11-04T11:31:08.483Z,1.55
2022-11-04T11:33:38.379Z,1.27
2022-11-04T11:36:11.884Z,1.10
2022-11-04T11:38:40.249Z,1.20
2022-11-04T11:41:24.568Z,1.58
2022-11-04T11:46:23.178Z,1.25
2022-11-04T11:48:53.462Z,1.40
2022-11-04T11:51:29.072Z,1.23
2022-11-04T11:54:03.578Z,1.20
2022-11-04T11:56:58.733Z,1.08
2022-11-04T12:02:21.528Z,1.08
2022-11-04T12:10:50.602Z,0.90
2022-11-04T12:13:24.361Z,1.00
2022-11-04T12:16:01.168Z,1.55
2022-11-04T12:18:33.908Z,1.30
2022-11-04T12:21:07.404Z,0.85
2022-11-04T12:23:40.374Z,1.05
2022-11-04T12:26:13.270Z,0.90
2022-11-04T12:28:46.284Z,0.90
2022-11-04T12:31:18.838Z,0.90
2022-11-04T12:33:49.926Z,1.15
2022-11-04T12:36:25.232Z,1.80
2022-11-04T12:39:01.121Z,1.38
2022-11-04T12:41:52.395Z,1.45
2022-11-04T12:44:23.897Z,1.75
2022-11-04T12:46:55.928Z,1.67
2022-11-04T12:49:38.375Z,1.67
2022-11-04T12:52:11.199Z,1.77
2022-11-04T12:54:43.607Z,1.50
2022-11-04T12:57:14.210Z,1.30
2022-11-04T12:59:47.562Z,1.30
2022-11-04T13:02:17.819Z,1.70
2022-11-04T13:04:48.381Z,1.98
2022-11-04T13:07:20.912Z,1.42
2022-11-04T13:09:50.411Z,1.40
2022-11-04T13:12:19.424Z,1.75
2022-11-04T13:14:49.019Z,1.15
2022-11-04T13:17:18.925Z,1.40
2022-11-04T13:19:48.004Z,1.20
2022-11-04T13:22:18.751Z,1.30
2022-11-04T13:24:49.808Z,2.00
2022-11-04T13:27:19.223Z,1.50
2022-11-04T13:29:47.283Z,2.00
2022-11-04T13:32:18.270Z,1.55
2022-11-04T13:34:49.218Z,2.10
2022-11-04T13:37:22.445Z,2.13
2022-11-04T13:39:54.562Z,2.38
2022-11-04T13:42:30.953Z,1.80
2022-11-04T13:44:58.910Z,2.17
2022-11-04T13:47:28.703Z,1.70
2022-11-04T13:49:57.000Z,1.98
2022-11-04T13:52:25.419Z,2.35
2022-11-04T13:54:57.024Z,2.38
2022-11-04T13:57:25.096Z,1.90
2022-11-04T14:00:11.274Z,2.53
2022-11-04T14:02:40.418Z,1.92
2022-11-04T14:05:39.892Z,2.30
2022-11-04T14:08:11.286Z,2.33
2022-11-04T14:10:43.948Z,2.15
2022-11-04T14:13:30.672Z,2.35
2022-11-04T14:16:01.607Z,2.60
2022-11-04T14:18:30.144Z,1.92
2022-11-04T14:21:07.911Z,2.40
2022-11-04T14:23:36.695Z,2.40
2022-11-04T14:26:06.433Z,2.33
2022-11-04T14:28:34.634Z,2.95
2022-11-04T14:31:02.359Z,2.45
2022-11-04T14:33:34.443Z,2.55
2022-11-04T14:36:20.462Z,2.47
2022-11-04T14:38:53.357Z,2.80
2022-11-04T14:41:24.257Z,3.00
2022-11-04T14:43:53.801Z,2.40
2022-11-04T14:46:22.476Z,2.58
2022-11-04T14:48:53.313Z,2.50
2022-11-04T14:51:25.950Z,2.83
2022-11-04T14:53:55.283Z,2.78
2022-11-04T14:56:24.671Z,2.75
2022-11-04T14:58:56.632Z,3.05
2022-11-04T15:01:29.859Z,3.90
2022-11-04T15:04:14.000Z,4.10
2022-11-04T15:06:54.826Z,3.83
2022-11-04T15:09:23.751Z,4.00
2022-11-04T15:12:12.124Z,3.30
2022-11-04T15:14:39.487Z,4.07
2022-11-04T15:17:06.844Z,3.53
2022-11-04T15:19:35.320Z,3.92
2022-11-04T15:22:03.657Z,4.07
2022-11-04T15:24:31.096Z,3.28
2022-11-04T15:27:02.022Z,3.08
2022-11-04T15:29:29.350Z,2.60
2022-11-04T15:31:57.880Z,3.10
2022-11-04T15:34:26.624Z,2.80
2022-11-04T15:36:56.432Z,3.38
2022-11-04T15:39:25.094Z,3.45
2022-11-04T15:42:12.779Z,3.50
2022-11-04T15:44:45.780Z,3.45
2022-11-04T15:47:23.459Z,3.22
2022-11-04T15:49:51.503Z,3.35
2022-11-04T15:52:20.626Z,7.43
2022-11-04T15:54:49.331Z,4.55
2022-11-04T15:57:17.979Z,3.45
2022-11-04T15:59:50.480Z,3.22
2022-11-04T16:02:23.021Z,3.17
2022-11-04T16:05:02.345Z,3.60
2022-11-04T16:07:31.479Z,3.22
2022-11-04T16:09:58.977Z,3.50
2022-11-04T16:12:27.820Z,3.08
2022-11-04T16:14:57.265Z,3.28
2022-11-04T16:17:25.124Z,3.40
2022-11-04T16:19:54.027Z,3.55
2022-11-04T16:22:24.752Z,4.00
2022-11-04T16:24:53.364Z,3.92
2022-11-04T16:27:22.225Z,3.75
2022-11-04T16:29:59.592Z,3.75
2022-11-04T16:32:28.089Z,4.18
2022-11-04T16:34:57.897Z,4.32
2022-11-04T16:37:26.536Z,4.30
2022-11-04T16:39:54.193Z,4.30
2022-11-04T16:42:22.775Z,3.90
2022-11-04T16:44:51.274Z,4.72
2022-11-04T16:47:20.257Z,3.75
2022-11-04T16:49:47.610Z,3.85
2022-11-04T16:52:25.330Z,4.10
2022-11-04T16:54:52.719Z,4.47
2022-11-04T16:57:20.089Z,4.32
2022-11-04T16:59:47.419Z,3.85
2022-11-04T17:02:17.203Z,4.68
2022-11-04T17:04:46.257Z,10.93
2022-11-04T17:07:13.621Z,8.02
2022-11-04T17:09:40.940Z,7.95
2022-11-04T17:12:08.336Z,7.90
2022-11-04T17:14:35.943Z,14.10
2022-11-04T17:17:03.672Z,5.47
2022-11-04T17:19:34.577Z,5.20
2022-11-04T17:22:04.975Z,5.63
2022-11-04T17:24:32.401Z,6.25
2022-11-04T17:26:59.921Z,11.73
2022-11-04T17:29:27.629Z,8.07
2022-11-04T17:31:55.734Z,12.98
2022-11-04T17:34:25.733Z,5.57
2022-11-04T17:36:53.196Z,7.50
2022-11-04T17:39:22.065Z,26.83
2022-11-04T17:42:07.087Z,9.68
2022-11-04T17:44:34.457Z,6.75
2022-11-04T17:47:01.771Z,6.57
2022-11-04T17:49:29.461Z,7.30
2022-11-04T17:51:57.985Z,13.23
2022-11-04T17:54:28.486Z,9.07
2022-11-04T17:56:56.208Z,8.32
2022-11-04T17:59:23.961Z,17.25
2022-11-04T18:01:51.613Z,7.88
2022-11-04T18:04:20.057Z,10.50
2022-11-04T18:06:47.460Z,8.90
2022-11-04T18:09:15.975Z,15.88
2022-11-04T18:12:05.424Z,6.15
2022-11-04T18:14:33.123Z,8.95
2022-11-04T18:17:00.760Z,8.00
2022-11-04T18:19:28.630Z,8.82
2022-11-04T18:21:56.048Z,7.75
2022-11-04T18:24:24.008Z,8.95
2022-11-04T18:26:53.033Z,9.65
2022-11-04T18:29:20.417Z,9.43
2022-11-04T18:31:49.369Z,9.55
2022-11-04T18:34:19.156Z,11.30
2022-11-04T18:36:46.877Z,10.80
2022-11-04T18:39:15.130Z,11.30
2022-11-04T18:41:42.736Z,11.75
2022-11-04T18:44:15.030Z,12.23
2022-11-04T18:46:42.398Z,12.68
2022-11-04T18:49:10.248Z,13.43
2022-11-04T18:51:37.718Z,13.10
2022-11-04T18:54:05.679Z,15.63
2022-11-04T18:56:33.411Z,23.10
2022-11-04T18:59:01.195Z,61.33
2022-11-04T19:01:30.987Z,29.58
2022-11-04T19:03:59.002Z,17.33
2022-11-04T19:06:27.496Z,17.63
2022-11-04T19:08:56.345Z,15.10
2022-11-04T19:11:24.624Z,17.02
2022-11-04T19:13:52.552Z,18.23
2022-11-04T19:16:20.199Z,18.42
2022-11-04T19:18:49.621Z,23.55
2022-11-04T19:21:17.962Z,23.45
2022-11-04T19:23:45.335Z,22.25
2022-11-04T19:26:14.257Z,23.77
2022-11-04T19:28:48.088Z,23.85
2022-11-04T19:31:17.558Z,30.92
2022-11-04T19:33:45.017Z,28.23
2022-11-04T19:36:14.323Z,22.92
2022-11-04T19:38:41.828Z,43.85
2022-11-04T19:41:32.184Z,22.75
2022-11-04T19:43:58.788Z,21.27
2022-11-04T19:46:26.119Z,21.42
2022-11-04T19:48:53.517Z,20.45
2022-11-04T19:51:22.232Z,19.92
2022-11-04T19:53:50.406Z,21.40
2022-11-04T19:56:18.410Z,20.88
2022-11-04T19:58:46.332Z,20.67
2022-11-04T20:01:14.579Z,21.70
2022-11-04T20:03:44.740Z,21.27
2022-11-04T20:06:13.091Z,22.30
2022-11-04T20:08:42.345Z,22.33
2022-11-04T20:11:10.051Z,22.90
2022-11-04T20:13:47.109Z,21.77
2022-11-04T20:16:18.902Z,22.40
2022-11-04T20:18:46.594Z,25.75
2022-11-04T20:21:14.553Z,24.33
2022-11-04T20:23:43.967Z,24.15
2022-11-04T20:26:19.169Z,25.50
2022-11-04T20:28:48.356Z,26.90
2022-11-04T20:31:17.804Z,26.70
2022-11-04T20:33:45.675Z,27.48
2022-11-04T20:36:13.510Z,30.75
2022-11-04T20:38:40.839Z,40.85
2022-11-04T20:41:10.268Z,33.72
2022-11-04T20:43:38.373Z,27.30
2022-11-04T20:46:07.617Z,40.33
2022-11-04T20:48:35.968Z,31.33
2022-11-04T20:51:07.373Z,24.15
2022-11-04T20:53:34.887Z,26.80
2022-11-04T20:56:06.216Z,26.55
2022-11-04T20:58:35.579Z,23.75
2022-11-04T21:01:03.804Z,25.02
2022-11-04T21:03:31.453Z,25.25
2022-11-04T21:05:59.261Z,25.15
2022-11-04T21:08:26.627Z,24.30
2022-11-04T21:10:54.393Z,23.15
2022-11-04T21:13:21.993Z,23.20
2022-11-04T21:15:52.917Z,23.70
2022-11-04T21:18:20.239Z,29.27
2022-11-04T21:20:48.232Z,22.17
2022-11-04T21:23:16.686Z,23.75
2022-11-04T21:25:44.997Z,25.33
2022-11-04T21:28:12.804Z,33.67
2022-11-04T21:30:41.116Z,23.88
2022-11-04T21:33:10.030Z,25.23
2022-11-04T21:35:37.629Z,27.90
2022-11-04T21:38:05.328Z,25.33
2022-11-04T21:40:33.168Z,24.42
2022-11-04T21:43:00.516Z,25.27
2022-11-04T21:45:28.195Z,26.20
2022-11-04T21:47:55.506Z,25.08
2022-11-04T21:50:24.207Z,27.05
2022-11-04T21:52:51.589Z,34.78
2022-11-04T21:55:19.032Z,24.75
2022-11-04T21:57:46.335Z,27.77
2022-11-04T22:00:14.325Z,28.65
2022-11-04T22:02:43.396Z,24.02
2022-11-04T22:05:11.325Z,34.00
2022-11-04T22:07:57.671Z,23.27
2022-11-04T22:10:25.435Z,22.25
2022-11-04T22:12:52.771Z,21.05
2022-11-04T22:15:40.999Z,21.35
2022-11-04T22:18:08.383Z,20.15
2022-11-04T22:20:36.012Z,20.23
2022-11-04T22:23:04.814Z,20.00
2022-11-04T22:25:32.328Z,20.10
2022-11-04T22:27:59.721Z,20.15
2022-11-04T22:30:26.996Z,20.80
2022-11-04T22:32:54.370Z,19.92
2022-11-04T22:35:21.705Z,20.35
2022-11-04T22:37:49.108Z,21.20
2022-11-04T22:40:17.851Z,19.15
2022-11-04T22:42:45.216Z,17.90
2022-11-04T22:45:16.574Z,20.08
2022-11-04T22:47:44.226Z,18.67
2022-11-04T22:50:11.724Z,19.02
2022-11-04T22:52:39.047Z,19.65
2022-11-04T22:55:06.811Z,20.15
2022-11-04T22:57:35.499Z,19.90
2022-11-04T23:00:04.080Z,22.75
2022-11-04T23:02:36.797Z,24.25
2022-11-04T23:05:04.695Z,24.90
2022-11-04T23:07:31.996Z,25.95
2022-11-04T23:10:16.734Z,25.08
2022-11-04T23:13:03.034Z,23.13
2022-11-04T23:15:47.675Z,20.42
2022-11-04T23:18:32.690Z,20.15
2022-11-04T23:21:17.036Z,18.73
2022-11-04T23:24:02.113Z,17.47
2022-11-04T23:26:29.878Z,16.13
2022-11-04T23:29:16.075Z,15.57
2022-11-04T23:31:43.481Z,15.18
2022-11-04T23:34:28.124Z,15.52
2022-11-04T23:37:13.751Z,14.77
2022-11-04T23:39:41.733Z,14.20
2022-11-04T23:42:18.472Z,13.88
2022-11-04T23:45:11.130Z,14.63
2022-11-04T23:47:57.593Z,13.82
2022-11-04T23:50:43.426Z,13.63
2022-11-04T23:53:29.652Z,14.50
2022-11-04T23:56:14.638Z,15.05
2022-11-04T23:58:59.649Z,15.43
